Time;durP1;ratioP1;P1;durP2;ratioP2;P2;SDS_P1;SDS_P2;PMS_P1;PMS_P2;Temp;Humidity;BMP_temperature;BMP_pressure;BME280_temperature;BME280_humidity;BME280_pressure;Samples;Min_cycle;Max_cycle;Signal;HPM_P1;HPM_P2
2021/03/15 00:02:06;;;;;;;72.55;7.65;;;5.10;99.90;;;;;;5052482;28;20397;-80
2021/03/15 00:04:31;;;;;;;65.68;7.38;;;5.10;99.90;;;;;;5051763;28;20090;-80
2021/03/15 00:06:57;;;;;;;73.15;8.40;;;5.10;99.90;;;;;;5052169;28;20041;-80
2021/03/15 00:09:22;;;;;;;88.68;8.63;;;5.10;99.90;;;;;;5052149;28;20021;-80
2021/03/15 00:11:48;;;;;;;52.63;8.00;;;5.10;99.90;;;;;;5034609;28;20055;-80
2021/03/15 00:14:13;;;;;;;61.20;7.97;;;5.10;99.90;;;;;;5051884;28;20063;-80
2021/03/15 00:16:39;;;;;;;53.13;7.40;;;5.00;99.90;;;;;;5052345;28;20090;-80
2021/03/15 00:19:05;;;;;;;63.60;8.73;;;5.10;99.90;;;;;;5034848;28;20537;-80
2021/03/15 00:21:30;;;;;;;59.22;7.53;;;5.10;99.90;;;;;;5052060;28;20033;-80
2021/03/15 00:23:56;;;;;;;70.90;9.30;;;5.10;99.90;;;;;;5051331;28;20033;-80
2021/03/15 00:26:21;;;;;;;73.05;8.55;;;5.10;99.90;;;;;;5051882;28;20053;-80
2021/03/15 00:28:47;;;;;;;67.55;8.07;;;5.10;99.90;;;;;;5051723;28;20025;-80
2021/03/15 00:31:12;;;;;;;67.30;8.57;;;5.10;99.90;;;;;;5033953;28;20025;-80
2021/03/15 00:33:38;;;;;;;58.55;8.05;;;5.10;99.90;;;;;;5033636;28;20029;-80
2021/03/15 00:36:04;;;;;;;55.03;6.78;;;5.10;99.90;;;;;;5051085;28;20117;-80
2021/03/15 00:38:30;;;;;;;85.85;9.10;;;5.10;99.90;;;;;;5051643;28;20029;-80
2021/03/15 00:40:56;;;;;;;61.60;7.97;;;5.20;99.90;;;;;;5051380;28;20029;-80
2021/03/15 00:43:22;;;;;;;69.25;7.85;;;5.10;99.90;;;;;;5051169;28;20043;-80
2021/03/15 00:45:47;;;;;;;68.75;8.32;;;5.10;99.90;;;;;;5050775;28;20473;-80
2021/03/15 00:48:13;;;;;;;84.25;8.82;;;5.10;99.90;;;;;;5051236;28;20017;-80
2021/03/15 00:50:42;;;;;;;70.82;9.13;;;5.00;99.90;;;;;;5050653;28;20032;-80
2021/03/15 00:53:11;;;;;;;74.13;8.05;;;4.90;99.90;;;;;;5033569;28;20021;-80
2021/03/15 00:55:37;;;;;;;74.68;8.25;;;5.00;99.90;;;;;;5050523;28;20099;-80
2021/03/15 00:58:03;;;;;;;75.75;8.05;;;4.90;99.90;;;;;;5051361;28;20591;-80
2021/03/15 01:00:33;;;;;;;59.88;7.57;;;5.00;99.90;;;;;;5051273;28;20032;-81
2021/03/15 01:02:59;;;;;;;71.60;7.70;;;5.00;99.90;;;;;;5051407;28;20021;-80
2021/03/15 01:05:40;;;;;;;63.20;8.45;;;5.00;99.90;;;;;;5050639;28;20107;-79
2021/03/15 01:08:11;;;;;;;59.10;7.05;;;5.00;99.90;;;;;;5051331;28;20112;-80
2021/03/15 01:10:38;;;;;;;70.95;7.35;;;5.00;99.90;;;;;;5051202;28;20021;-80
2021/03/15 01:13:04;;;;;;;59.38;7.40;;;5.00;99.90;;;;;;5050851;28;20544;-80
2021/03/15 01:15:30;;;;;;;57.75;7.32;;;5.00;99.90;;;;;;5050623;28;20494;-79
2021/03/15 01:17:56;;;;;;;47.05;7.50;;;5.00;99.90;;;;;;5032920;28;20021;-79
2021/03/15 01:20:22;;;;;;;77.05;10.27;;;5.00;99.90;;;;;;5050957;28;20025;-79
2021/03/15 01:22:47;;;;;;;67.88;9.63;;;5.00;99.90;;;;;;5050795;28;20025;-80
2021/03/15 01:25:15;;;;;;;67.03;6.30;;;5.00;99.90;;;;;;5050611;28;20063;-79
2021/03/15 01:27:40;;;;;;;53.63;6.38;;;5.00;99.90;;;;;;5050981;28;20025;-79
2021/03/15 01:30:10;;;;;;;73.60;7.20;;;4.90;99.90;;;;;;5050815;28;20027;-79
2021/03/15 01:32:35;;;;;;;66.82;7.18;;;4.80;99.90;;;;;;5050956;28;20025;-79
2021/03/15 01:35:01;;;;;;;59.08;8.88;;;4.80;99.90;;;;;;5050442;28;20052;-79
2021/03/15 01:37:26;;;;;;;75.60;6.68;;;4.80;99.90;;;;;;5050858;28;20519;-79
2021/03/15 01:39:52;;;;;;;66.05;6.75;;;4.80;99.90;;;;;;5050905;28;20503;-80
2021/03/15 01:42:17;;;;;;;69.38;7.25;;;4.80;99.90;;;;;;5050805;28;20029;-79
2021/03/15 01:44:43;;;;;;;58.70;5.90;;;4.80;99.90;;;;;;5050345;28;20103;-79
2021/03/15 01:47:09;;;;;;;76.15;7.50;;;4.80;99.90;;;;;;5032948;28;20029;-79
2021/03/15 01:49:34;;;;;;;50.78;6.80;;;4.80;99.90;;;;;;5050631;28;20064;-79
2021/03/15 01:52:00;;;;;;;50.50;6.70;;;4.80;99.90;;;;;;5032811;28;20025;-79
2021/03/15 01:54:26;;;;;;;73.38;7.03;;;4.80;99.90;;;;;;5050223;28;20537;-79
2021/03/15 01:56:51;;;;;;;62.88;7.22;;;4.80;99.90;;;;;;5050818;28;20474;-79
2021/03/15 01:59:19;;;;;;;72.78;7.75;;;4.80;99.90;;;;;;5050044;28;20112;-79
2021/03/15 02:01:46;;;;;;;75.60;7.72;;;4.80;99.90;;;;;;5053589;28;20017;-79
2021/03/15 02:04:15;;;;;;;60.63;5.90;;;4.80;99.90;;;;;;5053681;28;20083;-79
2021/03/15 02:06:42;;;;;;;71.32;7.50;;;4.80;99.90;;;;;;5036166;28;20671;-79
2021/03/15 02:09:08;;;;;;;68.85;7.55;;;4.80;99.90;;;;;;5054343;28;20025;-79
2021/03/15 02:11:49;;;;;;;75.70;7.38;;;4.90;99.90;;;;;;5054288;28;20024;-79
2021/03/15 02:14:20;;;;;;;71.07;7.78;;;4.90;99.90;;;;;;5053564;28;20017;-79
2021/03/15 02:16:49;;;;;;;50.15;6.60;;;4.90;99.90;;;;;;5036440;28;20074;-79
2021/03/15 02:19:39;;;;;;;58.47;7.72;;;4.90;99.90;;;;;;5036135;28;20028;-79
2021/03/15 02:22:14;;;;;;;55.22;6.43;;;4.90;99.90;;;;;;5046719;28;20385;-79
2021/03/15 02:24:57;;;;;;;42.30;5.28;;;4.90;99.90;;;;;;5035902;28;20036;-79
2021/03/15 02:28:00;;;;;;;65.55;6.45;;;4.90;99.90;;;;;;5054126;28;20029;-79
2021/03/15 02:30:40;;;;;;;51.95;5.90;;;4.90;99.90;;;;;;5053995;28;20155;-79
2021/03/15 02:33:33;;;;;;;51.72;6.50;;;5.00;99.90;;;;;;5054088;28;20017;-79
2021/03/15 02:36:01;;;;;;;55.15;5.72;;;5.00;99.90;;;;;;5053417;28;20037;-80
2021/03/15 02:38:33;;;;;;;55.08;8.77;;;5.00;99.90;;;;;;5053724;28;20037;-79
2021/03/15 02:41:01;;;;;;;56.28;6.05;;;5.00;99.90;;;;;;5053988;28;20071;-79
2021/03/15 02:43:41;;;;;;;56.15;6.65;;;5.00;99.90;;;;;;5053810;28;20021;-79
2021/03/15 02:46:11;;;;;;;47.22;5.55;;;5.00;99.90;;;;;;5035652;28;20086;-79
2021/03/15 02:48:38;;;;;;;47.63;6.38;;;5.00;99.90;;;;;;5054020;28;20028;-80
2021/03/15 02:51:05;;;;;;;47.90;5.50;;;5.00;99.90;;;;;;5035831;28;20178;-79
2021/03/15 02:53:32;;;;;;;67.00;5.45;;;5.00;99.90;;;;;;5054142;28;20040;-79
2021/03/15 02:56:06;;;;;;;55.70;6.18;;;5.00;99.90;;;;;;5053840;28;20036;-79
2021/03/15 02:58:34;;;;;;;61.58;7.18;;;5.00;99.90;;;;;;5053944;28;20044;-79
2021/03/15 03:01:01;;;;;;;60.65;5.72;;;5.00;99.90;;;;;;5053733;28;20027;-79
2021/03/15 03:03:27;;;;;;;50.00;6.13;;;5.00;99.90;;;;;;5053907;28;20029;-79
2021/03/15 03:05:55;;;;;;;43.92;5.57;;;5.00;99.90;;;;;;5052744;28;20029;-79
2021/03/15 03:08:22;;;;;;;41.08;5.75;;;5.00;99.90;;;;;;5053319;28;20017;-79
2021/03/15 03:10:50;;;;;;;64.70;6.03;;;5.10;99.90;;;;;;5053216;28;20018;-79
2021/03/15 03:13:19;;;;;;;56.10;6.55;;;5.10;99.90;;;;;;5051818;28;20021;-80
2021/03/15 03:15:45;;;;;;;49.38;5.30;;;5.10;99.90;;;;;;5052502;28;20071;-79
2021/03/15 03:18:15;;;;;;;51.22;6.90;;;5.10;99.90;;;;;;5035103;28;20079;-80
2021/03/15 03:20:43;;;;;;;43.33;5.97;;;5.10;99.90;;;;;;5052684;28;20515;-79
2021/03/15 03:23:09;;;;;;;52.00;7.60;;;5.00;99.90;;;;;;5035175;28;20074;-79
2021/03/15 03:25:35;;;;;;;41.28;5.43;;;5.00;99.90;;;;;;5051941;28;20032;-80
2021/03/15 03:28:01;;;;;;;54.30;7.18;;;5.00;99.90;;;;;;5051562;28;20108;-79
2021/03/15 03:30:30;;;;;;;44.75;6.35;;;5.00;99.90;;;;;;5052121;28;20017;-79
2021/03/15 03:32:58;;;;;;;54.45;6.57;;;5.00;99.90;;;;;;5052879;28;20079;-79
2021/03/15 03:35:24;;;;;;;48.70;7.93;;;5.00;99.90;;;;;;5051906;28;20424;-79
2021/03/15 03:37:50;;;;;;;47.42;6.10;;;5.00;99.90;;;;;;5034792;28;20025;-79
2021/03/15 03:40:16;;;;;;;49.13;5.25;;;4.90;99.90;;;;;;5052471;28;20067;-79
2021/03/15 03:42:42;;;;;;;69.80;7.35;;;4.90;99.90;;;;;;5052337;28;20031;-79
2021/03/15 03:45:08;;;;;;;45.50;5.60;;;4.90;99.90;;;;;;5051943;28;20024;-79
2021/03/15 03:47:36;;;;;;;44.28;5.95;;;4.90;99.90;;;;;;5052275;28;20036;-79
2021/03/15 03:50:02;;;;;;;50.85;5.75;;;4.90;99.90;;;;;;5052312;28;20032;-79
2021/03/15 03:52:30;;;;;;;45.72;7.45;;;4.90;99.90;;;;;;5052326;28;20168;-79
2021/03/15 03:55:04;;;;;;;40.13;5.55;;;5.00;99.90;;;;;;5051669;28;20134;-79
2021/03/15 03:57:36;;;;;;;51.92;6.25;;;5.00;99.90;;;;;;5034454;28;20374;-79
2021/03/15 04:00:13;;;;;;;57.08;6.75;;;4.90;99.90;;;;;;5052164;28;20021;-79
2021/03/15 04:02:44;;;;;;;48.25;6.88;;;4.90;99.90;;;;;;5052052;28;20478;-79
2021/03/15 04:05:16;;;;;;;42.28;5.93;;;4.80;99.90;;;;;;5031529;28;20281;-79
2021/03/15 04:07:47;;;;;;;47.38;5.90;;;4.80;99.90;;;;;;5032177;28;20040;-79
2021/03/15 04:10:13;;;;;;;63.85;8.15;;;4.80;99.90;;;;;;5014408;28;20029;-79
2021/03/15 04:12:52;;;;;;;60.05;8.30;;;4.80;99.90;;;;;;5014441;28;20021;-79
2021/03/15 04:15:18;;;;;;;65.45;6.25;;;4.80;99.90;;;;;;5031505;28;20033;-79
2021/03/15 04:17:44;;;;;;;54.17;6.65;;;4.80;99.90;;;;;;5031873;28;20055;-79
2021/03/15 04:20:27;;;;;;;66.75;7.85;;;4.80;99.90;;;;;;5029287;28;20028;-79
2021/03/15 04:22:57;;;;;;;54.70;8.23;;;4.80;99.90;;;;;;5014231;28;20481;-80
2021/03/15 04:25:26;;;;;;;40.15;5.32;;;4.70;99.90;;;;;;5031208;28;20401;-79
2021/03/15 04:27:53;;;;;;;75.18;7.60;;;4.70;99.90;;;;;;5031893;28;20083;-79
2021/03/15 04:30:20;;;;;;;72.43;8.13;;;4.70;99.90;;;;;;5014075;28;20417;-79
2021/03/15 04:32:53;;;;;;;45.95;6.47;;;4.80;99.90;;;;;;5031893;28;20394;-79
2021/03/15 04:35:33;;;;;;;60.58;7.03;;;4.80;99.90;;;;;;5031221;28;20556;-79
2021/03/15 04:37:59;;;;;;;61.58;7.45;;;4.70;99.90;;;;;;5043303;28;20032;-78
2021/03/15 04:40:27;;;;;;;63.10;6.68;;;4.70;99.90;;;;;;5033869;28;20071;-79
2021/03/15 04:42:59;;;;;;;46.10;6.22;;;4.70;99.90;;;;;;5051654;28;20028;-79
2021/03/15 04:45:26;;;;;;;72.72;6.88;;;4.70;99.90;;;;;;5051065;28;20021;-79
2021/03/15 04:47:52;;;;;;;65.03;9.63;;;4.70;99.90;;;;;;5051551;28;20055;-78
2021/03/15 04:50:18;;;;;;;74.97;8.05;;;4.70;99.90;;;;;;5051537;28;20477;-78
2021/03/15 04:52:44;;;;;;;64.40;6.47;;;4.70;99.90;;;;;;5034097;28;20029;-79
2021/03/15 04:55:11;;;;;;;63.33;6.30;;;4.70;99.90;;;;;;5044317;28;20504;-78
2021/03/15 04:57:38;;;;;;;56.17;6.53;;;4.70;99.90;;;;;;5033701;28;20025;-78
2021/03/15 05:00:07;;;;;;;97.72;10.25;;;4.70;99.90;;;;;;5051393;28;20075;-79
2021/03/15 05:02:34;;;;;;;58.50;8.15;;;4.70;99.90;;;;;;5033662;28;20124;-79
2021/03/15 05:05:01;;;;;;;78.15;7.88;;;4.70;99.90;;;;;;5050725;28;20082;-79
2021/03/15 05:07:26;;;;;;;79.88;9.50;;;4.80;99.90;;;;;;5051351;28;20493;-78
2021/03/15 05:09:53;;;;;;;74.63;6.85;;;4.70;99.90;;;;;;5051321;28;20079;-79
2021/03/15 05:12:19;;;;;;;55.80;7.97;;;4.80;99.90;;;;;;5051348;28;20048;-78
2021/03/15 05:14:46;;;;;;;62.63;7.05;;;4.80;99.90;;;;;;5050876;28;20107;-78
2021/03/15 05:17:12;;;;;;;67.88;9.07;;;4.80;99.90;;;;;;5051356;28;20378;-78
2021/03/15 05:19:39;;;;;;;84.50;9.85;;;4.80;99.90;;;;;;5051408;28;20032;-78
2021/03/15 05:22:05;;;;;;;77.63;8.75;;;4.80;99.90;;;;;;5033370;28;20029;-78
2021/03/15 05:24:32;;;;;;;67.00;8.45;;;4.80;99.90;;;;;;5050769;28;20033;-78
2021/03/15 05:26:57;;;;;;;62.40;7.95;;;4.80;99.90;;;;;;5033705;28;20390;-78
2021/03/15 05:29:24;;;;;;;65.32;8.55;;;4.80;99.90;;;;;;5051514;28;20027;-78
2021/03/15 05:31:50;;;;;;;67.13;8.02;;;4.80;99.90;;;;;;5051536;28;20021;-79
2021/03/15 05:34:20;;;;;;;49.58;6.20;;;4.80;99.90;;;;;;5051389;28;20041;-78
2021/03/15 05:36:46;;;;;;;41.83;5.25;;;4.80;99.90;;;;;;5054362;28;20025;-78
2021/03/15 05:39:12;;;;;;;55.60;6.15;;;4.80;99.90;;;;;;5037315;28;20042;-79
2021/03/15 05:41:52;;;;;;;55.42;6.30;;;4.80;99.90;;;;;;5055161;28;20033;-79
2021/03/15 05:44:50;;;;;;;58.53;6.30;;;4.70;99.90;;;;;;5054531;28;20094;-78
2021/03/15 05:47:35;;;;;;;56.80;6.70;;;4.80;99.90;;;;;;5054755;28;20029;-78
2021/03/15 05:50:13;;;;;;;56.10;5.93;;;4.80;99.90;;;;;;5054563;28;20033;-78
2021/03/15 05:53:22;;;;;;;57.42;6.75;;;4.80;99.90;;;;;;5054620;28;20432;-79
2021/03/15 05:56:33;;;;;;;46.50;6.55;;;4.80;99.90;;;;;;5036217;28;20119;-78
2021/03/15 05:59:36;;;;;;;53.58;6.50;;;4.80;99.90;;;;;;4938330;29;20046;-79
2021/03/15 06:02:21;;;;;;;54.92;5.97;;;4.80;99.90;;;;;;5054328;28;20025;-79
2021/03/15 06:05:18;;;;;;;44.47;6.70;;;4.80;99.90;;;;;;5053887;28;20021;-78
2021/03/15 06:07:48;;;;;;;52.13;6.22;;;4.90;99.90;;;;;;5052859;28;20489;-79
2021/03/15 06:10:36;;;;;;;44.47;5.82;;;4.90;99.90;;;;;;5054228;28;20025;-79
2021/03/15 06:13:13;;;;;;;60.50;6.30;;;4.90;99.90;;;;;;5053674;28;20025;-79
2021/03/15 06:15:44;;;;;;;58.17;5.82;;;4.90;99.90;;;;;;5053700;28;20111;-78
2021/03/15 06:18:14;;;;;;;42.92;4.50;;;4.90;99.90;;;;;;5054288;28;20414;-79
2021/03/15 06:20:44;;;;;;;54.33;6.03;;;5.00;99.90;;;;;;5053934;28;20100;-79
2021/03/15 06:23:11;;;;;;;43.40;5.75;;;5.00;99.90;;;;;;5054055;28;20025;-79
2021/03/15 06:25:37;;;;;;;54.45;6.03;;;5.10;99.90;;;;;;5053320;28;20547;-79
2021/03/15 06:28:04;;;;;;;42.20;5.35;;;5.00;99.90;;;;;;5054124;28;20397;-79
2021/03/15 06:30:31;;;;;;;49.30;5.63;;;5.10;99.90;;;;;;5054002;28;20028;-78
2021/03/15 06:32:59;;;;;;;50.38;6.00;;;5.10;99.90;;;;;;5054044;28;20175;-79
2021/03/15 06:35:33;;;;;;;51.50;5.85;;;5.00;99.90;;;;;;5053130;28;20419;-79
2021/03/15 06:37:59;;;;;;;;;;;4.90;99.90;;;;;;5054153;28;20060;-79
2021/03/15 06:40:27;;;;;;;31.67;4.35;;;4.90;99.90;;;;;;5053767;28;19911;-79
2021/03/15 06:42:53;;;;;;;47.05;7.80;;;4.90;99.90;;;;;;5053791;28;20099;-79
2021/03/15 06:45:20;;;;;;;50.30;7.03;;;4.90;99.90;;;;;;5053134;28;20029;-79
2021/03/15 06:47:47;;;;;;;68.88;6.93;;;4.90;99.90;;;;;;5052256;28;20413;-79
2021/03/15 06:50:14;;;;;;;84.28;9.25;;;5.00;99.90;;;;;;5053371;28;20082;-79
2021/03/15 06:52:59;;;;;;;64.75;7.47;;;5.00;99.90;;;;;;5050457;28;20025;-78
2021/03/15 06:55:34;;;;;;;65.88;8.00;;;5.00;99.90;;;;;;5048706;28;20023;-77
2021/03/15 06:58:03;;;;;;;65.68;7.93;;;5.00;99.90;;;;;;5041514;28;20443;-78
2021/03/15 07:00:30;;;;;;;81.18;9.68;;;5.00;99.90;;;;;;5049948;28;20108;-78
2021/03/15 07:02:58;;;;;;;76.25;8.13;;;5.00;99.90;;;;;;5032416;28;20025;-78
2021/03/15 07:05:24;;;;;;;79.63;9.35;;;5.10;99.90;;;;;;5049562;28;20049;-78
2021/03/15 07:07:53;;;;;;;59.88;7.00;;;5.00;99.90;;;;;;5049578;28;20029;-78
2021/03/15 07:10:23;;;;;;;66.65;7.10;;;5.10;99.90;;;;;;5049975;28;20046;-78
2021/03/15 07:12:49;;;;;;;71.53;8.02;;;5.10;99.90;;;;;;5049670;28;20056;-79
2021/03/15 07:15:16;;;;;;;58.53;7.13;;;5.10;99.90;;;;;;5049414;28;20520;-79
2021/03/15 07:17:42;;;;;;;45.92;6.93;;;5.10;99.90;;;;;;5049580;28;20040;-79
2021/03/15 07:20:09;;;;;;;66.05;6.97;;;5.10;99.90;;;;;;5047562;28;20025;-79
2021/03/15 07:22:36;;;;;;;58.17;6.10;;;5.10;99.90;;;;;;5051682;28;20029;-80
2021/03/15 07:25:07;;;;;;;75.88;6.97;;;5.20;99.90;;;;;;5048984;28;20066;-79
2021/03/15 07:27:34;;;;;;;78.50;8.30;;;5.20;99.90;;;;;;5049162;28;20025;-79
2021/03/15 07:30:27;;;;;;;68.85;7.47;;;5.20;99.90;;;;;;5049455;28;20067;-79
2021/03/15 07:32:54;;;;;;;74.60;9.02;;;5.20;99.90;;;;;;5049225;28;20028;-78
2021/03/15 07:35:21;;;;;;;71.97;8.02;;;5.20;99.90;;;;;;5045703;28;20036;-79
2021/03/15 07:37:47;;;;;;;75.95;9.57;;;5.20;99.90;;;;;;5048650;28;20052;-79
2021/03/15 07:40:27;;;;;;;68.28;8.60;;;5.20;99.90;;;;;;5048546;28;20489;-78
2021/03/15 07:43:07;;;;;;;50.97;7.55;;;5.20;99.90;;;;;;5046844;28;20029;-79
2021/03/15 07:45:37;;;;;;;76.53;9.73;;;5.20;99.90;;;;;;5047868;28;20048;-78
2021/03/15 07:48:11;;;;;;;79.57;9.13;;;5.20;99.90;;;;;;5034287;28;20108;-79
2021/03/15 07:50:38;;;;;;;72.32;8.80;;;5.30;99.90;;;;;;5051912;28;20497;-78
2021/03/15 07:53:07;;;;;;;68.45;7.55;;;5.30;99.90;;;;;;5052080;28;20495;-79
2021/03/15 07:55:37;;;;;;;79.15;9.85;;;5.40;99.90;;;;;;5051697;28;20117;-79
2021/03/15 07:58:27;;;;;;;92.10;9.50;;;5.50;99.90;;;;;;5051705;28;20039;-79
2021/03/15 08:00:54;;;;;;;99.45;12.20;;;5.50;99.90;;;;;;5050354;28;20028;-79
2021/03/15 08:03:23;;;;;;;59.15;8.95;;;5.50;99.90;;;;;;5052186;28;20562;-79
2021/03/15 08:05:49;;;;;;;67.88;7.82;;;5.60;99.90;;;;;;5051556;28;20031;-78
2021/03/15 08:08:15;;;;;;;59.97;9.43;;;5.60;99.90;;;;;;5052327;28;20485;-78
2021/03/15 08:10:42;;;;;;;78.72;10.68;;;5.60;99.90;;;;;;5051617;28;20041;-79
2021/03/15 08:13:10;;;;;;;86.82;10.60;;;5.60;99.90;;;;;;5051644;28;20049;-78
2021/03/15 08:15:36;;;;;;;90.63;11.20;;;5.60;99.90;;;;;;5051302;28;20099;-79
2021/03/15 08:18:03;;;;;;;81.22;9.98;;;5.70;99.90;;;;;;5051342;28;20040;-79
2021/03/15 08:20:30;;;;;;;100.72;10.23;;;5.70;99.90;;;;;;5051782;28;20025;-79
2021/03/15 08:22:59;;;;;;;91.82;11.20;;;5.70;99.90;;;;;;5051831;28;20017;-78
2021/03/15 08:25:25;;;;;;;91.15;10.18;;;5.70;99.90;;;;;;5051154;28;20057;-79
2021/03/15 08:27:55;;;;;;;92.82;9.15;;;5.60;99.90;;;;;;5033337;28;20029;-79
2021/03/15 08:30:26;;;;;;;79.72;9.48;;;5.60;99.90;;;;;;5051542;28;20025;-78
2021/03/15 08:32:52;;;;;;;44.58;6.72;;;5.60;99.90;;;;;;5051572;28;20107;-78
2021/03/15 08:35:19;;;;;;;71.70;6.82;;;5.50;99.90;;;;;;5051185;28;20534;-78
2021/03/15 08:37:54;;;;;;;52.30;6.30;;;5.50;99.90;;;;;;5051331;28;20033;-78
2021/03/15 08:40:42;;;;;;;54.40;7.72;;;5.40;99.90;;;;;;5051386;28;20056;-79
2021/03/15 08:43:21;;;;;;;82.93;9.75;;;5.60;99.90;;;;;;5033439;28;20029;-79
2021/03/15 08:46:09;;;;;;;80.97;10.10;;;5.60;99.90;;;;;;5050825;28;20079;-78
2021/03/15 08:48:37;;;;;;;58.72;7.38;;;5.60;99.90;;;;;;5050959;28;20025;-78
2021/03/15 08:51:14;;;;;;;51.13;6.70;;;5.50;99.90;;;;;;5051468;28;20021;-78
2021/03/15 08:53:40;;;;;;;69.28;8.07;;;5.40;99.90;;;;;;5051079;28;20021;-78
2021/03/15 08:56:17;;;;;;;65.55;7.40;;;5.40;99.90;;;;;;5030442;28;20112;-77
2021/03/15 08:58:50;;;;;;;69.97;9.13;;;5.50;99.90;;;;;;5050366;28;20082;-78
2021/03/15 09:01:21;;;;;;;55.58;6.82;;;5.50;99.90;;;;;;5051528;28;20021;-78
2021/03/15 09:03:51;;;;;;;56.53;6.60;;;5.60;99.90;;;;;;5050647;28;20071;-78
2021/03/15 09:06:32;;;;;;;49.70;7.18;;;5.50;99.90;;;;;;5050875;28;20025;-78
2021/03/15 09:09:34;;;;;;;44.47;8.35;;;5.50;99.90;;;;;;5047575;28;20029;-77
2021/03/15 09:12:03;;;;;;;41.63;6.63;;;5.50;99.90;;;;;;4994567;28;20489;-77
2021/03/15 09:14:30;;;;;;;33.05;4.30;;;5.50;99.90;;;;;;5034421;28;20506;-77
2021/03/15 09:17:01;;;;;;;33.65;4.95;;;5.50;99.90;;;;;;5033641;28;20393;-76
2021/03/15 09:19:40;;;;;;;39.28;4.63;;;5.60;99.90;;;;;;5044561;28;20079;-76
2021/03/15 09:22:22;;;;;;;27.67;4.35;;;5.60;99.90;;;;;;5052150;28;20017;-76
2021/03/15 09:24:59;;;;;;;25.23;3.83;;;5.70;99.90;;;;;;5049361;28;20040;-76
2021/03/15 09:27:31;;;;;;;41.72;4.78;;;5.80;99.90;;;;;;5034879;28;20025;-76
2021/03/15 09:29:59;;;;;;;46.38;4.43;;;5.70;99.90;;;;;;5052104;28;20025;-76
2021/03/15 09:32:30;;;;;;;34.83;3.85;;;5.70;99.90;;;;;;5051829;28;20029;-76
2021/03/15 09:34:58;;;;;;;19.77;2.75;;;5.70;99.90;;;;;;5051179;28;20024;-76
2021/03/15 09:37:25;;;;;;;34.88;3.83;;;5.80;99.90;;;;;;5053708;28;20397;-77
2021/03/15 09:39:52;;;;;;;24.73;3.85;;;6.00;99.90;;;;;;5054778;28;20112;-77
2021/03/15 09:42:19;;;;;;;19.38;3.00;;;5.90;99.90;;;;;;5032677;28;20025;-78
2021/03/15 09:44:45;;;;;;;13.75;2.53;;;5.90;99.90;;;;;;5032736;28;20032;-77
2021/03/15 09:47:13;;;;;;;18.65;2.63;;;5.70;99.90;;;;;;5051126;28;20025;-78
2021/03/15 09:49:43;;;;;;;17.77;2.83;;;5.80;99.90;;;;;;5054620;28;20079;-77
2021/03/15 09:52:23;;;;;;;28.90;4.10;;;5.70;99.90;;;;;;5054589;28;20071;-78
2021/03/15 09:54:56;;;;;;;24.52;3.63;;;5.70;99.90;;;;;;5053950;28;20049;-77
2021/03/15 09:57:23;;;;;;;22.92;3.05;;;5.60;99.90;;;;;;5054093;28;20075;-76
2021/03/15 09:59:49;;;;;;;25.77;3.58;;;5.70;99.90;;;;;;5054449;28;20429;-77
2021/03/15 10:02:36;;;;;;;27.42;4.15;;;5.70;99.90;;;;;;5052804;28;20481;-77
2021/03/15 10:05:02;;;;;;;17.48;3.13;;;5.80;99.90;;;;;;5050984;28;20049;-77
2021/03/15 10:07:28;;;;;;;22.98;3.33;;;5.90;99.90;;;;;;5035983;28;20556;-78
2021/03/15 10:09:53;;;;;;;17.33;3.03;;;5.90;99.90;;;;;;5035672;28;20033;-77
2021/03/15 10:12:21;;;;;;;17.42;2.90;;;6.10;99.90;;;;;;5053526;28;20021;-78
2021/03/15 10:15:02;;;;;;;25.90;3.83;;;6.10;99.90;;;;;;5035864;28;20029;-77
2021/03/15 10:17:28;;;;;;;33.80;3.97;;;6.10;99.90;;;;;;5036324;28;20171;-78
2021/03/15 10:19:54;;;;;;;21.63;4.40;;;6.10;99.90;;;;;;5054054;28;20100;-77
2021/03/15 10:22:20;;;;;;;26.55;4.63;;;6.00;99.90;;;;;;5053631;28;20028;-77
2021/03/15 10:24:48;;;;;;;37.88;4.40;;;6.00;99.90;;;;;;5052679;28;20115;-77
2021/03/15 10:27:26;;;;;;;31.67;6.13;;;6.00;99.90;;;;;;5053546;28;20033;-77
2021/03/15 10:30:06;;;;;;;33.95;4.15;;;6.00;99.90;;;;;;5053832;28;20013;-78
2021/03/15 10:32:32;;;;;;;16.88;3.92;;;5.80;99.90;;;;;;5053833;28;20392;-78
2021/03/15 10:35:06;;;;;;;26.00;4.32;;;5.90;99.90;;;;;;5052807;28;20036;-78
2021/03/15 10:37:35;;;;;;;36.08;4.90;;;5.90;99.90;;;;;;5053919;28;20386;-77
2021/03/15 10:40:02;;;;;;;26.30;3.70;;;5.90;99.90;;;;;;5035799;28;20081;-78
2021/03/15 10:42:28;;;;;;;32.55;4.38;;;5.90;99.90;;;;;;5053444;28;20390;-77
2021/03/15 10:44:55;;;;;;;27.73;5.30;;;6.00;99.90;;;;;;5053112;28;20029;-78
2021/03/15 10:47:32;;;;;;;11.18;2.50;;;6.10;99.90;;;;;;5053464;28;20481;-78
2021/03/15 10:49:59;;;;;;;12.73;2.53;;;6.00;99.90;;;;;;5035805;28;20137;-78
2021/03/15 10:52:33;;;;;;;12.88;2.47;;;6.00;99.90;;;;;;5053336;28;20523;-78
2021/03/15 10:55:20;;;;;;;20.85;3.33;;;6.10;99.90;;;;;;5034990;28;20053;-78
2021/03/15 10:58:01;;;;;;;13.35;2.53;;;6.20;99.90;;;;;;5035185;28;20091;-78
2021/03/15 11:00:29;;;;;;;15.85;2.80;;;6.20;99.90;;;;;;5053032;28;20029;-78
2021/03/15 11:02:55;;;;;;;23.08;2.58;;;6.10;99.90;;;;;;5053276;28;20025;-78
2021/03/15 11:05:21;;;;;;;13.68;2.65;;;6.10;99.90;;;;;;5034776;28;20396;-78
2021/03/15 11:07:46;;;;;;;14.65;2.40;;;6.20;99.90;;;;;;5053208;28;20040;-78
2021/03/15 11:10:22;;;;;;;16.80;2.65;;;6.10;99.90;;;;;;5034769;28;20025;-78
2021/03/15 11:12:56;;;;;;;12.25;2.20;;;6.10;99.90;;;;;;5043644;28;20055;-76
2021/03/15 11:15:29;;;;;;;13.55;2.20;;;6.20;99.90;;;;;;5032448;28;20378;-77
2021/03/15 11:18:11;;;;;;;20.38;2.80;;;6.20;99.90;;;;;;5048742;28;20100;-76
2021/03/15 11:20:42;;;;;;;14.98;3.65;;;6.20;99.90;;;;;;5048862;28;20111;-78
2021/03/15 11:23:08;;;;;;;22.55;3.40;;;6.20;99.90;;;;;;5055547;28;20063;-76
2021/03/15 11:25:34;;;;;;;28.08;3.97;;;6.10;99.90;;;;;;5049179;28;20021;-76
2021/03/15 11:28:10;;;;;;;13.32;4.03;;;6.10;99.90;;;;;;5048994;28;20501;-76
2021/03/15 11:30:36;;;;;;;23.65;4.07;;;6.10;99.90;;;;;;5049611;28;20037;-76
2021/03/15 11:33:02;;;;;;;24.33;2.88;;;6.00;99.90;;;;;;5031083;28;20025;-77
2021/03/15 11:35:28;;;;;;;15.30;2.60;;;5.90;99.90;;;;;;5031226;28;20497;-77
2021/03/15 11:37:57;;;;;;;19.67;2.75;;;5.80;99.90;;;;;;5055707;28;20036;-78
2021/03/15 11:40:27;;;;;;;19.08;2.92;;;5.80;99.90;;;;;;5049730;28;20081;-76
2021/03/15 11:42:53;;;;;;;17.73;3.85;;;5.80;99.90;;;;;;5049079;28;20025;-75
2021/03/15 11:45:19;;;;;;;26.63;3.45;;;5.90;99.90;;;;;;5048712;28;20032;-77
2021/03/15 11:47:45;;;;;;;15.63;3.03;;;5.80;99.90;;;;;;5049370;28;20378;-78
2021/03/15 11:50:11;;;;;;;16.90;2.85;;;5.80;99.90;;;;;;5048642;28;20060;-77
2021/03/15 11:52:39;;;;;;;21.40;2.78;;;5.80;99.90;;;;;;5049300;28;20386;-77
2021/03/15 11:55:05;;;;;;;23.65;2.90;;;5.70;99.90;;;;;;5032093;28;20024;-79
2021/03/15 11:57:31;;;;;;;23.30;3.13;;;5.70;99.90;;;;;;5045973;28;20060;-78
2021/03/15 11:59:57;;;;;;;17.90;3.05;;;5.80;99.90;;;;;;5051039;28;20433;-78
2021/03/15 12:02:22;;;;;;;10.13;2.58;;;5.80;99.90;;;;;;5051958;28;20697;-78
2021/03/15 12:04:48;;;;;;;16.27;2.75;;;5.90;99.90;;;;;;5051608;28;20111;-77
2021/03/15 12:07:13;;;;;;;14.23;2.40;;;5.90;99.90;;;;;;5051644;28;20036;-77
2021/03/15 12:09:40;;;;;;;22.05;2.90;;;5.90;99.90;;;;;;5052157;28;20386;-77
2021/03/15 12:12:06;;;;;;;22.50;4.07;;;6.00;99.90;;;;;;5051771;28;20032;-78
2021/03/15 12:14:31;;;;;;;13.50;2.50;;;6.00;99.90;;;;;;5033431;28;20438;-77
2021/03/15 12:16:57;;;;;;;17.52;3.00;;;6.10;99.90;;;;;;5051533;28;20033;-77
2021/03/15 12:19:22;;;;;;;13.15;2.70;;;6.20;99.90;;;;;;5051885;28;20144;-77
2021/03/15 12:21:48;;;;;;;14.52;2.45;;;6.20;99.90;;;;;;5051863;28;20051;-78
2021/03/15 12:24:13;;;;;;;18.00;2.25;;;6.30;99.90;;;;;;5051297;28;20025;-78
2021/03/15 12:26:39;;;;;;;21.50;3.28;;;6.30;99.90;;;;;;5051521;28;20501;-77
2021/03/15 12:29:04;;;;;;;19.77;2.85;;;6.20;99.90;;;;;;5051663;28;20033;-77
2021/03/15 12:31:30;;;;;;;11.57;2.10;;;6.30;99.90;;;;;;5051672;28;20020;-77
2021/03/15 12:33:55;;;;;;;14.38;2.45;;;6.20;99.90;;;;;;5051152;28;20131;-78
2021/03/15 12:36:21;;;;;;;10.75;2.45;;;6.20;99.90;;;;;;5051323;28;20414;-77
2021/03/15 12:38:47;;;;;;;17.08;2.85;;;6.20;99.90;;;;;;5051733;28;20033;-77
2021/03/15 12:41:12;;;;;;;12.75;2.00;;;6.30;99.90;;;;;;5050977;28;20037;-77
2021/03/15 12:43:38;;;;;;;14.10;2.22;;;6.40;99.90;;;;;;5051100;28;20121;-78
2021/03/15 12:46:03;;;;;;;7.93;3.17;;;6.40;99.90;;;;;;5033117;28;20036;-77
2021/03/15 12:48:29;;;;;;;9.40;2.25;;;6.30;99.90;;;;;;5044747;28;20033;-78
2021/03/15 12:50:55;;;;;;;17.50;3.78;;;6.10;99.90;;;;;;5048284;28;20013;-78
2021/03/15 12:53:20;;;;;;;17.80;2.80;;;6.10;99.90;;;;;;5048607;28;20448;-78
2021/03/15 12:55:46;;;;;;;23.27;3.15;;;6.00;99.90;;;;;;5047670;28;20035;-78
2021/03/15 12:58:11;;;;;;;6.97;1.65;;;5.80;99.90;;;;;;5045085;28;20021;-77
2021/03/15 13:00:37;;;;;;;12.57;2.30;;;5.80;99.90;;;;;;5030548;28;20014;-77
2021/03/15 13:03:03;;;;;;;8.98;1.92;;;5.90;99.90;;;;;;5048259;28;20029;-78